To NAV CANADA Home Page Login to a new session Search on AWWS site Feedback and Comments Disclaimer Vers la page française équivalente Tips FAQ What's new on the site To the Forecasts and Observations / NOTAM section To "File a Flight Plan" website Publications and other links Update of the User's profile FIC Telephone Numbers My Weather Data Folder Route Weather Data Regional Weather Data Local Weather Data To the Forecasts and Observations / NOTAM section
Request Generated 07/24/2016 at 08:43:26 UTC . Weather information available at that time is displayed.

METAR/TAF

QUEBEC/JEAN LESAGE INTL/QC    

METAR CYQB 240800Z 01003KT 15SM SKC 14/10 A2989 RMK SLP125=
METAR CYQB 240700Z 35004KT 290V010 15SM SKC 15/10 A2988 RMK SLP121
DENSITY ALT 300FT=
METAR CYQB 240600Z 28005KT 15SM SKC 14/10 A2988 RMK SLP121=

TAF CYQB 240542Z 2406/2506 33010KT P6SM FEW060
FM241800 25010KT P6SM BKN260
FM250500 VRB03KT P6SM BKN140 BKN230
RMK NXT FCST BY 241200Z=
Your time UTC time
Weather data provided by Environment Canada and NAV CANADA